Time;durP1;ratioP1;P1;durP2;ratioP2;P2;SDS_P1;SDS_P2;PMS_P1;PMS_P2;Temp;Humidity;BMP_temperature;BMP_pressure;BME280_temperature;BME280_humidity;BME280_pressure;Samples;Min_cycle;Max_cycle;Signal;HPM_P1;HPM_P2
2022/11/17 00:00:32;;;;;;;6.90;3.10;;;;;;;8.99;100.00;98987.06;6313399;22;20341;-79
2022/11/17 00:02:59;;;;;;;6.22;3.20;;;;;;;9.00;100.00;98983.22;6312283;22;20015;-81
2022/11/17 00:05:25;;;;;;;4.55;2.83;;;;;;;9.00;100.00;98987.78;6313386;22;20047;-79
2022/11/17 00:07:52;;;;;;;7.75;3.30;;;;;;;8.99;100.00;98971.13;6312943;22;20124;-80
2022/11/17 00:10:18;;;;;;;4.10;2.65;;;;;;;8.99;100.00;98968.47;6286097;22;20012;-81
2022/11/17 00:15:30;;;;;;;7.35;3.60;;;;;;;8.97;100.00;98949.66;6312795;22;20091;-78
2022/11/17 00:23:45;;;;;;;5.18;3.35;;;;;;;9.00;100.00;98916.13;6313189;22;20015;-79
2022/11/17 00:26:16;;;;;;;6.30;3.50;;;;;;;8.99;100.00;98901.41;6313153;22;20023;-80
2022/11/17 00:28:43;;;;;;;6.80;3.88;;;;;;;9.00;100.00;98906.25;6313247;22;20011;-81
2022/11/17 00:34:05;;;;;;;6.55;3.22;;;;;;;8.99;100.00;98898.75;6312935;22;20042;-80
2022/11/17 00:36:35;;;;;;;5.55;3.60;;;;;;;9.00;100.00;98890.31;6285523;22;20020;-80
2022/11/17 00:39:02;;;;;;;8.27;3.65;;;;;;;9.00;100.00;98892.97;6312696;22;20466;-80
2022/11/17 00:41:29;;;;;;;5.68;3.80;;;;;;;9.01;100.00;98875.13;6313189;22;20409;-80
2022/11/17 00:43:55;;;;;;;4.25;3.67;;;;;;;9.01;100.00;98869.81;6285014;22;20016;-78
2022/11/17 00:46:22;;;;;;;3.97;3.53;;;;;;;9.01;100.00;98867.88;6285023;22;20095;-78
2022/11/17 00:48:48;;;;;;;8.07;3.72;;;;;;;9.01;100.00;98841.34;6313072;22;20046;-78
2022/11/17 00:51:15;;;;;;;6.90;3.70;;;;;;;9.01;100.00;98841.34;6313009;22;20012;-79
2022/11/17 00:53:42;;;;;;;6.80;3.60;;;;;;;9.00;100.00;98837.25;6313274;22;20035;-78
2022/11/17 00:56:08;;;;;;;6.68;3.60;;;;;;;9.00;100.00;98829.28;6312843;22;20091;-78
2022/11/17 00:58:35;;;;;;;7.13;3.28;;;;;;;9.00;100.00;98823.25;6312995;22;20015;-80
2022/11/17 01:01:02;;;;;;;5.55;2.95;;;;;;;9.00;100.00;98816.00;6312178;22;20012;-80
2022/11/17 01:03:28;;;;;;;5.75;3.38;;;;;;;9.01;100.00;98808.78;6313322;22;20417;-80
2022/11/17 01:05:55;;;;;;;9.05;3.47;;;;;;;9.01;100.00;98796.22;6312597;22;20016;-82
2022/11/17 01:08:21;;;;;;;3.70;3.38;;;;;;;9.01;100.00;98809.50;6312876;22;20511;-81
2022/11/17 01:10:47;;;;;;;3.70;3.28;;;;;;;9.02;100.00;98784.41;6312640;22;20036;-81
2022/11/17 01:13:16;;;;;;;3.80;3.13;;;;;;;9.03;100.00;98772.59;6312772;22;20087;-80
2022/11/17 01:15:43;;;;;;;3.72;3.08;;;;;;;9.03;100.00;98750.63;6312116;22;20095;-80
2022/11/17 01:18:09;;;;;;;4.47;3.30;;;;;;;9.06;100.00;98756.94;6312582;22;20536;-80
2022/11/17 01:20:36;;;;;;;4.38;2.80;;;;;;;9.05;100.00;98750.16;6313203;22;20083;-81
2022/11/17 01:23:02;;;;;;;3.63;2.95;;;;;;;9.06;100.00;98738.34;6312665;22;20090;-81
2022/11/17 01:25:30;;;;;;;2.83;2.30;;;;;;;9.07;100.00;98737.88;6313022;22;20104;-81
2022/11/17 01:27:56;;;;;;;3.95;2.60;;;;;;;9.09;100.00;98750.66;6312860;22;20047;-80
2022/11/17 01:30:23;;;;;;;3.92;2.97;;;;;;;9.08;100.00;98747.28;6312637;22;20048;-80
2022/11/17 01:32:49;;;;;;;3.13;2.83;;;;;;;9.07;100.00;98737.88;6312533;22;20098;-78
2022/11/17 01:35:15;;;;;;;4.00;2.33;;;;;;;9.09;100.00;98746.09;6312769;22;20334;-79
2022/11/17 01:37:42;;;;;;;3.10;2.80;;;;;;;9.10;100.00;98742.22;6284980;22;20055;-77
2022/11/17 01:40:12;;;;;;;2.42;2.22;;;;;;;9.11;100.00;98727.03;6312360;22;20103;-78
2022/11/17 01:42:38;;;;;;;6.68;2.83;;;;;;;9.11;100.00;98727.75;6312761;22;20462;-77
2022/11/17 01:45:19;;;;;;;3.15;2.90;;;;;;;9.13;100.00;98725.34;6311644;22;20401;-78
2022/11/17 01:47:56;;;;;;;3.33;3.08;;;;;;;9.16;100.00;98739.59;6312413;22;20098;-78
2022/11/17 01:50:26;;;;;;;4.65;2.75;;;;;;;9.16;100.00;98744.91;6313028;22;20012;-78
2022/11/17 01:52:58;;;;;;;5.65;3.25;;;;;;;9.16;100.00;98726.31;6312273;22;20011;-78
2022/11/17 01:55:32;;;;;;;4.38;3.30;;;;;;;9.16;100.00;98734.28;6312955;22;20103;-79
2022/11/17 01:58:07;;;;;;;3.13;2.85;;;;;;;9.18;100.00;98726.56;6312304;22;20754;-78
2022/11/17 02:00:34;;;;;;;7.70;3.72;;;;;;;9.18;100.00;98714.03;6312603;22;20454;-79
2022/11/17 02:03:01;;;;;;;3.85;3.47;;;;;;;9.18;100.00;98715.97;6284746;22;20487;-81
2022/11/17 02:05:38;;;;;;;3.90;3.22;;;;;;;9.18;100.00;98708.00;6285033;22;20023;-80
2022/11/17 02:08:06;;;;;;;5.05;2.72;;;;;;;9.20;100.00;98695.66;6312233;22;20461;-80
2022/11/17 02:10:34;;;;;;;2.85;2.65;;;;;;;9.23;100.00;98696.63;6312612;22;20344;-79
2022/11/17 02:13:01;;;;;;;8.27;3.10;;;;;;;9.24;100.00;98687.47;6311658;22;20046;-80
2022/11/17 02:15:28;;;;;;;3.33;2.60;;;;;;;9.24;100.00;98690.13;6311988;22;20016;-80
2022/11/17 02:17:56;;;;;;;4.60;2.88;;;;;;;9.25;100.00;98694.97;6312154;22;20423;-80
2022/11/17 02:20:30;;;;;;;2.83;2.30;;;;;;;9.25;100.00;98679.03;6312704;22;20182;-78
2022/11/17 02:23:38;;;;;;;2.33;2.10;;;;;;;9.26;100.00;98685.78;6312200;22;20504;-77
2022/11/17 02:26:22;;;;;;;3.72;2.33;;;;;;;9.27;100.00;98676.63;6312185;22;20487;-81
2022/11/17 02:29:02;;;;;;;2.00;1.75;;;;;;;9.29;100.00;98676.16;6311637;22;20069;-80
2022/11/17 02:31:43;;;;;;;2.67;1.70;;;;;;;9.30;100.00;98672.28;6312708;22;20096;-78
2022/11/17 02:34:47;;;;;;;3.20;1.85;;;;;;;9.32;100.00;98675.19;6312084;22;20046;-79
2022/11/17 02:37:26;;;;;;;1.80;1.70;;;;;;;9.31;100.00;98661.19;6312638;22;20093;-79
2022/11/17 02:39:52;;;;;;;3.70;1.98;;;;;;;9.31;100.00;98655.88;6312010;22;20016;-79
2022/11/17 02:44:02;;;;;;;4.00;1.88;;;;;;;9.32;100.00;98659.25;6312091;22;20090;-80
2022/11/17 02:45:22;;;;;;;2.05;1.80;;;;;;;9.33;100.00;98658.06;6312178;22;20038;-80
2022/11/17 02:47:52;;;;;;;2.30;1.90;;;;;;;9.35;100.00;98666.25;6312163;22;20052;-80
2022/11/17 02:50:22;;;;;;;3.63;2.00;;;;;;;9.35;100.00;98661.69;6312620;22;20396;-80
2022/11/17 02:52:53;;;;;;;3.42;1.88;;;;;;;9.37;100.00;98655.88;6312154;22;20415;-80
2022/11/17 02:55:20;;;;;;;2.25;2.05;;;;;;;9.39;100.00;98650.81;6312173;22;20083;-79
2022/11/17 02:57:48;;;;;;;1.90;1.80;;;;;;;9.39;100.00;98645.50;6310922;22;20022;-80
2022/11/17 03:00:19;;;;;;;2.72;2.05;;;;;;;9.38;100.00;98636.09;6312159;22;20034;-79
2022/11/17 03:03:12;;;;;;;2.50;2.10;;;;;;;9.38;100.00;98628.13;6312027;22;20015;-81
2022/11/17 03:06:20;;;;;;;3.30;2.20;;;;;;;9.39;100.00;98629.56;6285017;22;20020;-80
2022/11/17 03:09:09;;;;;;;5.07;1.58;;;;;;;9.41;100.00;98627.16;6253022;22;20051;-80
2022/11/17 03:11:46;;;;;;;3.25;1.83;;;;;;;9.42;100.00;98628.63;6311777;22;20087;-80
2022/11/17 03:14:31;;;;;;;1.92;1.73;;;;;;;9.44;100.00;98622.81;6312183;22;20040;-79
2022/11/17 03:17:19;;;;;;;3.67;1.80;;;;;;;9.45;100.00;98622.34;6311130;22;20032;-80
2022/11/17 03:19:55;;;;;;;3.17;1.30;;;;;;;9.46;100.00;98617.75;6311569;22;20146;-79
2022/11/17 03:22:50;;;;;;;1.70;1.60;;;;;;;9.48;100.00;98610.03;6312215;22;20512;-80
2022/11/17 03:25:21;;;;;;;2.85;1.33;;;;;;;9.47;100.00;98608.59;6284843;22;20035;-81
2022/11/17 03:27:57;;;;;;;2.85;1.60;;;;;;;9.48;100.00;98596.75;6311713;22;20079;-81
2022/11/17 03:30:25;;;;;;;3.70;1.38;;;;;;;9.49;100.00;98593.63;6311950;22;20016;-81
2022/11/17 03:32:56;;;;;;;1.95;1.40;;;;;;;9.49;100.00;98596.28;6311638;22;20091;-80
2022/11/17 03:35:27;;;;;;;2.42;1.60;;;;;;;9.48;100.00;98600.13;6312470;22;20178;-81
2022/11/17 03:38:00;;;;;;;2.58;1.67;;;;;;;9.51;100.00;98585.88;6284224;22;20095;-81
2022/11/17 03:40:31;;;;;;;3.33;1.70;;;;;;;9.50;100.00;98586.38;6311241;22;20016;-81
2022/11/17 03:43:01;;;;;;;3.43;1.93;;;;;;;9.50;100.00;98581.06;6311518;22;20016;-83
2022/11/17 03:45:30;;;;;;;3.03;1.75;;;;;;;9.52;100.00;98581.31;6283574;22;20044;-82
2022/11/17 03:48:06;;;;;;;1.67;1.58;;;;;;;9.53;100.00;98580.81;6311367;22;20460;-84
2022/11/17 03:50:36;;;;;;;1.80;1.70;;;;;;;9.53;100.00;98580.81;6311728;22;20020;-82
2022/11/17 03:53:04;;;;;;;2.83;1.73;;;;;;;9.55;100.00;98581.06;6309817;22;20043;-81
2022/11/17 03:55:43;;;;;;;2.13;1.70;;;;;;;9.56;100.00;98574.53;6310339;22;20012;-82
2022/11/17 03:58:16;;;;;;;3.22;1.60;;;;;;;9.55;100.00;98575.75;6311147;22;20044;-82
2022/11/17 04:00:45;;;;;;;5.35;2.33;;;;;;;9.57;100.00;98568.03;6311872;22;20490;-81
2022/11/17 04:03:11;;;;;;;4.47;1.75;;;;;;;9.59;100.00;98565.59;6283884;22;20036;-82
2022/11/17 04:05:38;;;;;;;2.25;1.45;;;;;;;9.62;100.00;98569.19;6312051;22;20043;-83
2022/11/17 04:08:04;;;;;;;1.95;1.80;;;;;;;9.61;100.00;98563.16;6310989;22;20457;-81
2022/11/17 04:15:54;;;;;;;3.10;1.90;;;;;;;9.63;100.00;98574.03;6311463;22;20090;-82
2022/11/17 04:16:04;;;;;;;2.50;1.67;;;;;;;9.66;100.00;98567.75;6312574;22;20020;-82
2022/11/17 04:18:30;;;;;;;2.75;1.70;;;;;;;9.67;100.00;98569.19;6313255;22;20047;-81
2022/11/17 04:20:56;;;;;;;3.55;1.83;;;;;;;9.66;100.00;98554.47;6312939;22;20449;-82
2022/11/17 04:23:24;;;;;;;1.88;1.70;;;;;;;9.67;100.00;98563.16;6313518;22;20011;-84
2022/11/17 04:28:44;;;;;;;1.73;1.63;;;;;;;9.66;100.00;98548.44;6313072;22;20369;-83
2022/11/17 04:31:27;;;;;;;3.35;1.67;;;;;;;9.66;100.00;98546.50;6313080;22;20431;-82
2022/11/17 04:33:56;;;;;;;2.83;1.85;;;;;;;9.68;100.00;98532.72;6312838;22;20091;-82
2022/11/17 04:36:25;;;;;;;2.80;1.80;;;;;;;9.67;100.00;98531.28;6312734;22;20081;-81
2022/11/17 04:38:54;;;;;;;3.00;1.50;;;;;;;9.66;100.00;98519.94;6311045;22;20039;-81
2022/11/17 04:44:09;;;;;;;3.03;1.50;;;;;;;9.66;100.00;98517.28;6312636;22;20083;-83
2022/11/17 04:46:38;;;;;;;1.40;1.30;;;;;;;9.64;100.00;98506.41;6313139;22;20054;-84
2022/11/17 04:49:06;;;;;;;1.85;1.50;;;;;;;9.62;100.00;98502.78;6312917;22;20012;-81
2022/11/17 04:51:33;;;;;;;1.58;1.33;;;;;;;9.61;100.00;98496.03;6286042;22;20868;-82
2022/11/17 04:54:01;;;;;;;2.95;1.65;;;;;;;9.60;100.00;98491.94;6312340;22;20102;-82
2022/11/17 04:56:28;;;;;;;2.63;1.55;;;;;;;9.59;100.00;98487.84;6285431;22;20094;-84
2022/11/17 04:58:55;;;;;;;2.65;1.60;;;;;;;9.61;100.00;98491.44;6312355;22;20071;-83
2022/11/17 05:01:23;;;;;;;1.58;1.05;;;;;;;9.62;100.00;98478.88;6312843;22;20092;-81
2022/11/17 05:03:52;;;;;;;1.40;1.30;;;;;;;9.64;100.00;98479.84;6312698;22;20040;-80
2022/11/17 05:06:23;;;;;;;2.15;1.15;;;;;;;9.64;100.00;98484.44;6313029;22;20287;-82
2022/11/17 05:08:54;;;;;;;1.33;1.30;;;;;;;9.64;100.00;98484.44;6312079;22;20050;-79
2022/11/17 05:14:08;;;;;;;4.82;1.40;;;;;;;9.68;100.00;98484.91;6311591;22;20082;-81
2022/11/17 05:19:25;;;;;;;2.22;1.48;;;;;;;9.69;100.00;98484.44;6312462;22;20412;-83
2022/11/17 05:21:52;;;;;;;4.05;1.50;;;;;;;9.72;100.00;98476.69;6283893;22;20428;-80
2022/11/17 05:24:19;;;;;;;3.17;1.55;;;;;;;9.72;100.00;98482.72;6313008;22;20046;-81
2022/11/17 05:26:47;;;;;;;2.28;1.50;;;;;;;9.73;100.00;98475.50;6312477;22;20019;-80
2022/11/17 05:29:16;;;;;;;4.20;2.05;;;;;;;9.73;100.00;98480.81;6312785;22;20018;-78
2022/11/17 05:31:43;;;;;;;2.85;1.90;;;;;;;9.71;100.00;98478.63;6312884;22;20022;-79
2022/11/17 05:34:12;;;;;;;2.65;2.10;;;;;;;9.69;100.00;98476.47;6312259;22;20353;-78
2022/11/17 05:36:39;;;;;;;1.67;1.58;;;;;;;9.67;100.00;98478.16;6312397;22;20408;-78
2022/11/17 05:39:06;;;;;;;4.68;1.80;;;;;;;9.67;100.00;98467.53;6312458;22;20361;-79
2022/11/17 05:41:33;;;;;;;5.25;2.08;;;;;;;9.66;100.00;98463.44;6312755;22;20505;-78
2022/11/17 05:44:00;;;;;;;3.30;2.05;;;;;;;9.66;100.00;98458.84;6312486;22;20083;-78
2022/11/17 05:46:26;;;;;;;2.65;2.10;;;;;;;9.64;100.00;98447.97;6312749;22;20045;-78
2022/11/17 05:48:53;;;;;;;4.05;1.90;;;;;;;9.63;100.00;98446.53;6284852;22;20016;-78
2022/11/17 05:51:22;;;;;;;2.47;2.28;;;;;;;9.63;100.00;98456.44;6312157;22;20091;-78
2022/11/17 05:53:49;;;;;;;2.40;2.22;;;;;;;9.62;100.00;98445.06;6312284;22;20043;-79
2022/11/17 05:56:30;;;;;;;2.78;2.20;;;;;;;9.61;100.00;98456.19;6312743;22;20015;-78
2022/11/17 05:59:05;;;;;;;2.50;2.30;;;;;;;9.60;100.00;98458.13;6312175;22;20015;-78
2022/11/17 06:01:34;;;;;;;3.05;2.38;;;;;;;9.58;100.00;98454.53;6312821;22;20472;-77
2022/11/17 06:04:03;;;;;;;3.33;2.20;;;;;;;9.57;100.00;98448.50;6312266;22;20098;-77
2022/11/17 06:06:30;;;;;;;3.97;2.38;;;;;;;9.58;100.00;98452.59;6312202;22;20086;-77
2022/11/17 06:08:56;;;;;;;3.60;2.00;;;;;;;9.55;100.00;98450.19;6312237;22;20051;-77
2022/11/17 06:11:23;;;;;;;2.05;1.95;;;;;;;9.56;100.00;98444.38;6312615;22;20091;-77
2022/11/17 06:13:49;;;;;;;4.15;1.92;;;;;;;9.54;100.00;98433.53;6284525;22;20103;-77
2022/11/17 06:16:18;;;;;;;3.42;1.98;;;;;;;9.53;100.00;98421.47;6311908;22;20044;-77
2022/11/17 06:18:53;;;;;;;1.80;1.70;;;;;;;9.54;100.00;98436.19;6312296;22;20019;-78
2022/11/17 06:21:19;;;;;;;2.15;1.77;;;;;;;9.54;100.00;98444.16;6284686;22;20539;-77
2022/11/17 06:23:47;;;;;;;5.18;1.73;;;;;;;9.53;100.00;98458.66;6312245;22;20011;-77
2022/11/17 06:26:15;;;;;;;1.13;1.13;;;;;;;9.55;100.00;98444.88;6312615;22;20038;-78
2022/11/17 06:28:45;;;;;;;2.58;1.27;;;;;;;9.57;100.00;98445.13;6312376;22;20062;-78
2022/11/17 06:31:12;;;;;;;3.42;1.30;;;;;;;9.60;100.00;98452.09;6312524;22;20100;-77
2022/11/17 06:33:39;;;;;;;2.10;1.30;;;;;;;9.62;100.00;98461.00;6311503;22;20016;-78
2022/11/17 06:36:07;;;;;;;3.75;1.65;;;;;;;9.63;100.00;98457.16;6311643;22;20142;-78
2022/11/17 06:38:34;;;;;;;1.42;1.33;;;;;;;9.65;100.00;98467.28;6312627;22;20091;-78
2022/11/17 06:41:03;;;;;;;3.10;1.10;;;;;;;9.64;100.00;98468.50;6311847;22;20020;-77
2022/11/17 06:43:37;;;;;;;1.33;1.17;;;;;;;9.64;100.00;98468.50;6312367;22;20034;-78
2022/11/17 06:46:04;;;;;;;2.72;1.60;;;;;;;9.64;100.00;98473.81;6311954;22;20042;-77
2022/11/17 06:48:34;;;;;;;2.22;1.40;;;;;;;9.64;100.00;98479.84;6311857;22;20031;-77
2022/11/17 06:51:03;;;;;;;3.17;1.20;;;;;;;9.63;100.00;98485.66;6312144;22;20020;-77
2022/11/17 06:53:31;;;;;;;3.45;1.40;;;;;;;9.63;100.00;98491.69;6312265;22;20019;-77
2022/11/17 06:56:01;;;;;;;4.15;1.30;;;;;;;9.62;100.00;98479.59;6311966;22;20065;-77
2022/11/17 06:58:28;;;;;;;2.45;1.30;;;;;;;9.62;100.00;98487.56;6312030;22;20015;-77
2022/11/17 07:01:04;;;;;;;2.03;1.27;;;;;;;9.62;100.00;98487.56;6311597;22;20030;-78
2022/11/17 07:03:34;;;;;;;3.45;1.10;;;;;;;9.63;100.00;98488.31;6312410;22;20074;-79
2022/11/17 07:06:03;;;;;;;5.18;1.17;;;;;;;9.64;100.00;98492.41;6313052;22;20464;-79
2022/11/17 07:08:30;;;;;;;2.13;1.45;;;;;;;9.62;100.00;98500.13;6312979;22;20016;-79
2022/11/17 07:11:10;;;;;;;3.80;1.15;;;;;;;9.62;100.00;98497.47;6312632;22;20105;-79
2022/11/17 07:13:37;;;;;;;2.88;1.23;;;;;;;9.61;100.00;98502.06;6311807;22;20073;-80
2022/11/17 07:16:09;;;;;;;3.70;1.38;;;;;;;9.61;100.00;98507.38;6283753;22;20024;-78
2022/11/17 07:18:37;;;;;;;2.45;1.30;;;;;;;9.60;100.00;98505.94;6311075;22;20066;-80
2022/11/17 07:21:06;;;;;;;4.32;1.08;;;;;;;9.60;100.00;98513.91;6312290;22;20020;-84
2022/11/17 07:23:33;;;;;;;2.55;1.40;;;;;;;9.60;100.00;98511.25;6312709;22;20069;-81
2022/11/17 07:26:00;;;;;;;6.53;1.15;;;;;;;9.60;100.00;98511.25;6285031;22;20008;-81
2022/11/17 07:28:27;;;;;;;2.45;1.08;;;;;;;9.61;100.00;98512.69;6312640;22;20360;-79
2022/11/17 07:30:55;;;;;;;5.55;1.58;;;;;;;9.61;100.00;98520.66;6312590;22;20140;-80
2022/11/17 07:33:22;;;;;;;2.78;1.23;;;;;;;9.61;100.00;98514.63;6312111;22;20012;-83
2022/11/17 07:35:48;;;;;;;5.32;1.13;;;;;;;9.60;100.00;98527.19;6312463;22;20016;-84
2022/11/17 07:38:15;;;;;;;2.70;1.10;;;;;;;9.60;100.00;98521.16;6312617;22;20095;-82
2022/11/17 07:40:41;;;;;;;5.72;1.05;;;;;;;9.59;100.00;98525.75;6312348;22;20024;-82
2022/11/17 07:43:08;;;;;;;4.97;1.25;;;;;;;9.58;100.00;98521.66;6284692;22;20456;-83
2022/11/17 07:45:35;;;;;;;8.27;1.30;;;;;;;9.59;100.00;98525.03;6286094;22;20011;-82
2022/11/17 07:48:04;;;;;;;2.80;1.10;;;;;;;9.59;100.00;98530.34;6313170;22;20074;-82
2022/11/17 07:50:32;;;;;;;7.35;1.58;;;;;;;9.59;100.00;98539.03;6313872;22;20031;-82
2022/11/17 07:52:58;;;;;;;1.92;1.00;;;;;;;9.59;100.00;98543.63;6313972;22;20019;-79
2022/11/17 07:55:25;;;;;;;2.60;0.90;;;;;;;9.58;100.00;98542.19;6313787;22;20348;-79
2022/11/17 07:57:59;;;;;;;1.05;0.85;;;;;;;9.57;100.00;98548.72;6313700;22;20011;-78
2022/11/17 08:00:28;;;;;;;0.70;0.70;;;;;;;9.55;100.00;98540.50;6313723;22;20020;-77
2022/11/17 08:03:00;;;;;;;2.10;1.27;;;;;;;9.53;100.00;98543.63;6285799;22;20039;-77
2022/11/17 08:05:29;;;;;;;2.03;1.40;;;;;;;9.50;100.00;98554.50;6313934;22;20452;-79
2022/11/17 08:07:58;;;;;;;1.10;0.75;;;;;;;9.47;100.00;98561.50;6313710;22;20022;-78
2022/11/17 08:13:21;;;;;;;1.25;0.60;;;;;;;9.41;100.00;98560.78;6280977;22;20436;-79
2022/11/17 08:15:47;;;;;;;3.67;0.85;;;;;;;9.39;100.00;98565.13;6282679;22;20571;-79
2022/11/17 08:18:14;;;;;;;1.45;0.80;;;;;;;9.35;100.00;98560.06;6282365;22;20016;-79
2022/11/17 08:20:40;;;;;;;1.10;0.60;;;;;;;9.34;100.00;98555.94;6282614;22;20028;-79
2022/11/17 08:23:07;;;;;;;3.70;0.82;;;;;;;9.33;100.00;98573.09;6282625;22;20020;-80
2022/11/17 08:25:34;;;;;;;2.90;1.00;;;;;;;9.33;100.00;98562.47;6282570;22;20851;-78
2022/11/17 08:28:00;;;;;;;5.03;0.70;;;;;;;9.32;100.00;98568.97;6282698;22;20016;-79
2022/11/17 08:30:27;;;;;;;4.55;1.25;;;;;;;9.33;100.00;98570.44;6282987;22;20020;-79
2022/11/17 08:32:53;;;;;;;2.33;0.82;;;;;;;9.34;100.00;98566.56;6282784;22;20075;-78
2022/11/17 08:35:23;;;;;;;3.20;0.82;;;;;;;9.33;100.00;98578.41;6282630;22;20023;-78
2022/11/17 08:37:51;;;;;;;4.70;1.02;;;;;;;9.32;100.00;98574.28;6282531;22;20078;-79
2022/11/17 08:40:18;;;;;;;4.88;0.85;;;;;;;9.30;100.00;98580.06;6281924;22;20025;-79
2022/11/17 08:42:45;;;;;;;4.18;0.90;;;;;;;9.29;100.00;98581.28;6282715;22;20439;-78
2022/11/17 08:45:12;;;;;;;2.25;0.95;;;;;;;9.28;100.00;98573.81;6282776;22;20020;-78
2022/11/17 08:47:39;;;;;;;2.67;0.77;;;;;;;9.26;100.00;98570.91;6282745;22;20045;-79
2022/11/17 08:50:06;;;;;;;2.95;0.85;;;;;;;9.25;100.00;98585.38;6282571;22;20020;-79
2022/11/17 08:52:32;;;;;;;1.00;0.90;;;;;;;9.23;100.00;98582.47;6282632;22;20079;-79
2022/11/17 08:54:59;;;;;;;1.70;0.73;;;;;;;9.24;100.00;98583.94;6281099;22;20467;-79
2022/11/17 08:57:28;;;;;;;2.45;1.00;;;;;;;9.21;100.00;98592.84;6281974;22;20424;-80
2022/11/17 08:59:55;;;;;;;2.35;0.70;;;;;;;9.21;100.00;98590.19;6282302;22;20460;-80
2022/11/17 09:02:21;;;;;;;1.60;0.90;;;;;;;9.19;100.00;98588.06;6282138;22;20016;-80
2022/11/17 09:04:49;;;;;;;4.45;1.00;;;;;;;9.18;100.00;98602.53;6281915;22;20016;-79
2022/11/17 09:07:16;;;;;;;1.52;1.05;;;;;;;9.18;100.00;98599.16;6281963;22;20023;-80
2022/11/17 09:09:45;;;;;;;1.30;0.90;;;;;;;9.19;100.00;98596.03;6281644;22;20016;-80
2022/11/17 09:12:11;;;;;;;1.48;1.00;;;;;;;9.25;100.00;98601.31;6281696;22;20485;-82
2022/11/17 09:14:38;;;;;;;2.53;1.08;;;;;;;9.30;100.00;98596.00;6282067;22;20013;-82
2022/11/17 09:17:04;;;;;;;1.27;0.90;;;;;;;9.34;100.00;98606.41;6281870;22;20095;-81
2022/11/17 09:19:31;;;;;;;1.75;0.85;;;;;;;9.34;100.00;98609.06;6255161;22;20028;-80
2022/11/17 09:21:57;;;;;;;3.03;0.90;;;;;;;9.34;100.00;98609.78;6281765;22;20054;-79
2022/11/17 09:24:25;;;;;;;2.92;1.10;;;;;;;9.36;100.00;98617.25;6281312;22;20023;-79
2022/11/17 09:26:53;;;;;;;3.92;1.10;;;;;;;9.35;100.00;98616.53;6282023;22;20032;-78
2022/11/17 09:29:20;;;;;;;1.63;1.00;;;;;;;9.38;100.00;98616.78;6282449;22;20386;-80
2022/11/17 09:31:46;;;;;;;4.45;1.27;;;;;;;9.38;100.00;98620.16;6281550;22;20016;-79
2022/11/17 09:34:13;;;;;;;4.40;1.15;;;;;;;9.37;100.00;98621.38;6281754;22;20163;-78
2022/11/17 09:36:40;;;;;;;3.00;0.95;;;;;;;9.40;100.00;98635.63;6282084;22;20074;-80
2022/11/17 09:39:07;;;;;;;5.03;1.35;;;;;;;9.38;100.00;98627.41;6281386;22;20291;-79
2022/11/17 09:41:43;;;;;;;3.45;1.50;;;;;;;9.39;100.00;98639.47;6281905;22;20247;-79
2022/11/17 09:44:30;;;;;;;3.42;1.17;;;;;;;9.39;100.00;98639.47;6282102;22;20016;-79
2022/11/17 09:47:15;;;;;;;4.10;1.42;;;;;;;9.42;100.00;98633.19;6281786;22;20024;-80
2022/11/17 09:49:53;;;;;;;2.33;1.17;;;;;;;9.41;100.00;98640.44;6282065;22;20059;-82
2022/11/17 09:52:31;;;;;;;3.28;1.27;;;;;;;9.39;100.00;98661.44;6253768;22;20474;-83
2022/11/17 09:55:02;;;;;;;4.35;1.40;;;;;;;9.38;100.00;98665.31;6280862;22;20024;-80
2022/11/17 09:57:50;;;;;;;3.42;1.70;;;;;;;9.38;100.00;98654.69;6281781;22;20012;-78
2022/11/17 10:00:19;;;;;;;1.45;1.20;;;;;;;9.43;100.00;98659.28;6281325;22;20031;-79
2022/11/17 10:02:46;;;;;;;2.85;1.00;;;;;;;9.42;100.00;98655.16;6254447;22;20016;-79
2022/11/17 10:05:26;;;;;;;3.35;1.52;;;;;;;9.40;100.00;98664.81;6255121;22;20017;-78
2022/11/17 10:07:55;;;;;;;1.25;1.13;;;;;;;9.38;100.00;98664.56;6281213;22;20016;-79
2022/11/17 10:10:32;;;;;;;1.17;1.10;;;;;;;9.35;100.00;98671.56;6281689;22;20437;-78
2022/11/17 10:13:01;;;;;;;2.35;1.15;;;;;;;9.33;100.00;98669.41;6281234;22;20016;-78
2022/11/17 10:15:56;;;;;;;3.70;1.35;;;;;;;9.33;100.00;98677.34;6253920;22;20012;-78
2022/11/17 10:18:22;;;;;;;3.03;1.40;;;;;;;9.31;100.00;98676.38;6248493;22;20016;-78
2022/11/17 10:20:50;;;;;;;2.97;2.00;;;;;;;9.28;100.00;98683.38;6253193;22;20110;-78
2022/11/17 10:23:19;;;;;;;1.33;1.13;;;;;;;9.31;100.00;98690.38;6280007;22;20445;-79
2022/11/17 10:25:54;;;;;;;12.82;1.63;;;;;;;9.33;100.00;98682.66;6280631;22;20012;-79
2022/11/17 10:28:32;;;;;;;1.65;1.40;;;;;;;9.38;100.00;98688.47;6280263;22;20102;-79
2022/11/17 10:31:18;;;;;;;1.55;1.30;;;;;;;9.40;100.00;98688.72;6280959;22;20020;-79
2022/11/17 10:33:47;;;;;;;1.30;1.20;;;;;;;9.39;100.00;98692.59;6281465;22;20036;-79
2022/11/17 10:36:27;;;;;;;2.22;1.25;;;;;;;9.38;100.00;98696.44;6280918;22;20031;-79
2022/11/17 10:38:56;;;;;;;2.13;1.00;;;;;;;9.35;100.00;98700.78;6281440;22;20016;-79
2022/11/17 10:41:24;;;;;;;2.60;0.90;;;;;;;9.31;100.00;98698.34;6281129;22;20056;-79
2022/11/17 10:43:57;;;;;;;0.57;0.57;;;;;;;9.29;100.00;98695.44;6281748;22;20051;-79
2022/11/17 10:46:24;;;;;;;2.35;1.10;;;;;;;9.28;100.00;98693.28;6281120;22;20017;-79
2022/11/17 10:49:04;;;;;;;2.88;1.02;;;;;;;9.29;100.00;98697.38;6281139;22;20016;-79
2022/11/17 10:51:32;;;;;;;4.18;1.00;;;;;;;9.29;100.00;98695.44;6281100;22;20409;-79
2022/11/17 10:54:16;;;;;;;2.53;1.25;;;;;;;9.32;100.00;98710.44;6281779;22;20466;-80
2022/11/17 10:56:49;;;;;;;0.88;0.88;;;;;;;9.35;100.00;98701.50;6281685;22;20095;-80
2022/11/17 10:59:27;;;;;;;1.25;0.95;;;;;;;9.39;100.00;98695.97;6281638;22;20043;-79
2022/11/17 11:01:54;;;;;;;5.43;1.40;;;;;;;9.43;100.00;98704.44;6254663;22;20032;-79
2022/11/17 11:04:34;;;;;;;1.23;1.10;;;;;;;9.45;100.00;98702.03;6281262;22;20466;-80
2022/11/17 11:07:21;;;;;;;7.65;1.17;;;;;;;9.48;100.00;98711.69;6281116;22;20036;-79
2022/11/17 11:10:23;;;;;;;7.30;1.17;;;;;;;9.49;100.00;98702.50;6281469;22;20039;-79
2022/11/17 11:13:12;;;;;;;3.08;1.10;;;;;;;9.51;100.00;98712.66;6280957;22;20016;-79
2022/11/17 11:15:39;;;;;;;1.48;1.17;;;;;;;9.54;100.00;98719.66;6281608;22;20023;-79
2022/11/17 11:18:17;;;;;;;2.30;1.10;;;;;;;9.54;100.00;98720.38;6254408;22;20012;-80
2022/11/17 11:20:53;;;;;;;2.95;1.17;;;;;;;9.53;100.00;98718.94;6280148;22;20468;-80
2022/11/17 11:23:23;;;;;;;2.33;1.10;;;;;;;9.52;100.00;98730.03;6256749;22;20016;-78
2022/11/17 11:26:21;;;;;;;3.97;1.10;;;;;;;9.54;100.00;98736.31;6282660;22;20046;-81
2022/11/17 11:29:06;;;;;;;1.55;0.90;;;;;;;9.57;100.00;98734.66;6282450;22;20012;-78
2022/11/17 11:31:38;;;;;;;4.60;1.52;;;;;;;9.54;100.00;98736.31;6282823;22;20016;-78
2022/11/17 11:34:14;;;;;;;4.05;1.88;;;;;;;9.53;100.00;98737.53;6282035;22;20023;-77
2022/11/17 11:36:53;;;;;;;1.13;0.93;;;;;;;9.50;100.00;98743.81;6282550;22;20020;-79
2022/11/17 11:39:41;;;;;;;2.67;1.17;;;;;;;9.53;100.00;98748.16;6282873;22;20032;-79
2022/11/17 11:42:45;;;;;;;2.58;0.90;;;;;;;9.55;100.00;98751.06;6255177;22;20052;-78
2022/11/17 11:45:40;;;;;;;1.75;1.00;;;;;;;9.57;100.00;98745.28;6255385;22;20486;-79
2022/11/17 11:48:26;;;;;;;2.00;1.23;;;;;;;9.59;100.00;98759.53;6255531;22;20065;-77
2022/11/17 11:51:02;;;;;;;1.60;0.90;;;;;;;9.56;100.00;98760.47;6282746;22;20062;-79
2022/11/17 11:53:36;;;;;;;2.75;1.33;;;;;;;9.57;100.00;98766.53;6282560;22;20012;-80
2022/11/17 11:56:10;;;;;;;5.18;0.90;;;;;;;9.56;100.00;98768.44;6282616;22;20027;-78
2022/11/17 11:59:11;;;;;;;1.77;1.15;;;;;;;9.56;100.00;98757.09;6282750;22;20019;-77
2022/11/17 12:01:46;;;;;;;2.63;1.00;;;;;;;9.54;100.00;98762.16;6255966;22;20016;-77
2022/11/17 12:04:26;;;;;;;4.50;1.40;;;;;;;9.52;100.00;98759.97;6254428;22;20019;-77
2022/11/17 12:07:14;;;;;;;4.72;1.17;;;;;;;9.51;100.00;98765.78;6282283;22;20095;-77
2022/11/17 12:10:02;;;;;;;3.20;0.85;;;;;;;9.49;100.00;98760.94;6255249;22;20017;-77
2022/11/17 12:12:35;;;;;;;4.15;1.30;;;;;;;9.46;100.00;98761.16;6281772;22;20012;-76
2022/11/17 12:15:16;;;;;;;1.30;0.90;;;;;;;9.45;100.00;98776.38;6281365;22;20016;-77
2022/11/17 12:17:59;;;;;;;6.65;1.27;;;;;;;9.43;100.00;98770.81;6281754;22;20091;-77
2022/11/17 12:20:39;;;;;;;4.13;1.00;;;;;;;9.46;100.00;98766.47;6282291;22;20409;-78
2022/11/17 12:23:17;;;;;;;3.17;1.10;;;;;;;9.45;100.00;98768.41;6282644;22;20437;-75